Time;durP1;ratioP1;P1;durP2;ratioP2;P2;SDS_P1;SDS_P2;PMS_P1;PMS_P2;Temp;Humidity;BMP_temperature;BMP_pressure;BME280_temperature;BME280_humidity;BME280_pressure;Samples;Min_cycle;Max_cycle;Signal;HPM_P1;HPM_P2
2021/01/21 00:00:07;;;;;;;5.35;2.50;;;;;;;;;;4963204;28;20023;-83
2021/01/21 00:02:33;;;;;;;4.82;2.38;;;;;;;;;;4981969;28;20106;-82
2021/01/21 00:04:59;;;;;;;6.80;1.83;;;;;;;;;;4990238;28;20065;-83
2021/01/21 00:07:24;;;;;;;7.38;1.95;;;;;;;;;;4971893;28;20058;-83
2021/01/21 00:09:50;;;;;;;3.25;1.85;;;;;;;;;;4987828;28;20108;-84
2021/01/21 00:12:16;;;;;;;4.90;1.55;;;;;;;;;;4972655;28;20026;-85
2021/01/21 00:14:44;;;;;;;2.97;1.67;;;;;;;;;;4971520;28;20030;-84
2021/01/21 00:17:12;;;;;;;7.03;1.75;;;;;;;;;;4988975;28;20023;-83
2021/01/21 00:19:38;;;;;;;3.60;2.05;;;;;;;;;;4988838;28;20038;-82
2021/01/21 00:22:10;;;;;;;6.40;1.63;;;;;;;;;;4970505;28;20457;-82
2021/01/21 00:24:38;;;;;;;4.32;2.15;;;;;;;;;;4961265;28;20058;-83
2021/01/21 00:27:03;;;;;;;11.73;2.05;;;;;;;;;;4972219;28;20048;-82
2021/01/21 00:29:28;;;;;;;4.50;1.48;;;;;;;;;;4989793;28;20091;-83
2021/01/21 00:31:54;;;;;;;2.08;1.63;;;;;;;;;;4967563;28;20125;-84
2021/01/21 00:34:24;;;;;;;3.80;1.67;;;;;;;;;;4970663;28;20041;-87
2021/01/21 00:36:50;;;;;;;2.75;1.70;;;;;;;;;;4966776;28;20109;-82
2021/01/21 00:39:18;;;;;;;3.78;1.52;;;;;;;;;;4978762;28;20046;-82
2021/01/21 00:41:46;;;;;;;4.93;1.70;;;;;;;;;;4990663;28;20068;-84
2021/01/21 00:44:12;;;;;;;2.45;1.40;;;;;;;;;;4993720;28;20143;-83
2021/01/21 00:46:37;;;;;;;7.10;2.45;;;;;;;;;;4958944;28;20085;-82
2021/01/21 00:49:02;;;;;;;2.50;1.20;;;;;;;;;;4993540;28;20026;-84
2021/01/21 00:51:30;;;;;;;4.95;2.28;;;;;;;;;;4989693;28;20475;-83
2021/01/21 00:54:02;;;;;;;3.10;1.92;;;;;;;;;;4974694;28;20034;-82
2021/01/21 00:56:30;;;;;;;6.63;1.77;;;;;;;;;;4994881;28;20054;-83
2021/01/21 00:58:55;;;;;;;2.20;1.23;;;;;;;;;;4992435;28;20069;-84
2021/01/21 01:01:23;;;;;;;3.03;1.83;;;;;;;;;;4989450;28;20047;-84
2021/01/21 01:03:49;;;;;;;2.33;1.85;;;;;;;;;;4975452;28;20070;-84
2021/01/21 01:06:15;;;;;;;2.90;1.33;;;;;;;;;;4988948;28;20030;-84
2021/01/21 01:08:45;;;;;;;4.40;1.55;;;;;;;;;;4989431;28;20538;-82
2021/01/21 01:11:13;;;;;;;6.78;1.75;;;;;;;;;;4984989;28;20026;-83
2021/01/21 01:13:43;;;;;;;4.57;1.45;;;;;;;;;;4983600;28;20114;-83
2021/01/21 01:16:09;;;;;;;1.48;1.30;;;;;;;;;;4987559;28;20118;-84
2021/01/21 01:18:35;;;;;;;5.72;1.45;;;;;;;;;;4989090;28;20042;-83
2021/01/21 01:21:01;;;;;;;1.70;1.13;;;;;;;;;;4969863;28;20100;-83
2021/01/21 01:23:26;;;;;;;3.22;1.35;;;;;;;;;;4985412;28;20030;-83
2021/01/21 01:25:53;;;;;;;2.45;1.10;;;;;;;;;;4973015;28;20058;-83
2021/01/21 01:28:18;;;;;;;7.63;1.15;;;;;;;;;;4972222;28;20044;-82
2021/01/21 01:30:46;;;;;;;3.03;1.08;;;;;;;;;;4982412;28;21309;-82
2021/01/21 01:33:14;;;;;;;6.53;1.42;;;;;;;;;;4983992;28;20026;-82
2021/01/21 01:35:40;;;;;;;2.47;1.50;;;;;;;;;;4955017;28;20034;-83
2021/01/21 01:38:09;;;;;;;3.25;1.20;;;;;;;;;;4985831;28;20050;-82
2021/01/21 01:40:34;;;;;;;4.38;1.20;;;;;;;;;;4987416;28;20030;-84
2021/01/21 01:43:03;;;;;;;5.45;1.55;;;;;;;;;;4972175;28;20117;-84
2021/01/21 01:45:28;;;;;;;3.13;1.05;;;;;;;;;;4968750;28;20423;-81
2021/01/21 01:47:56;;;;;;;9.07;1.48;;;;;;;;;;4969043;28;20057;-83
2021/01/21 01:50:25;;;;;;;4.05;1.42;;;;;;;;;;4981485;28;20176;-84
2021/01/21 01:52:54;;;;;;;2.63;1.08;;;;;;;;;;4984188;28;20045;-84
2021/01/21 01:55:20;;;;;;;2.78;1.13;;;;;;;;;;4988455;28;20045;-82
2021/01/21 01:57:53;;;;;;;3.53;1.02;;;;;;;;;;4985552;28;20057;-82
2021/01/21 02:00:19;;;;;;;2.38;1.23;;;;;;;;;;4986397;28;20034;-83
2021/01/21 02:02:51;;;;;;;1.52;1.10;;;;;;;;;;4964276;28;20045;-82
2021/01/21 02:05:19;;;;;;;1.90;1.25;;;;;;;;;;4964722;28;20575;-83
2021/01/21 02:07:45;;;;;;;1.92;1.25;;;;;;;;;;4964559;28;20121;-82
2021/01/21 02:10:16;;;;;;;2.08;1.02;;;;;;;;;;4986667;28;20038;-84
2021/01/21 02:13:00;;;;;;;3.15;0.90;;;;;;;;;;4966306;28;20034;-81
2021/01/21 02:15:28;;;;;;;3.78;1.25;;;;;;;;;;4988585;28;20018;-83
2021/01/21 02:17:53;;;;;;;1.65;1.08;;;;;;;;;;4973883;28;20461;-82
2021/01/21 02:20:35;;;;;;;5.03;2.47;;;;;;;;;;4978449;28;20160;-82
2021/01/21 02:23:21;;;;;;;2.75;0.90;;;;;;;;;;4962735;28;20392;-83
2021/01/21 02:25:52;;;;;;;3.35;1.10;;;;;;;;;;4966608;28;20125;-82
2021/01/21 02:28:37;;;;;;;4.03;1.60;;;;;;;;;;4986092;28;20045;-83
2021/01/21 02:31:14;;;;;;;1.65;0.90;;;;;;;;;;4943397;28;20045;-84
2021/01/21 02:33:59;;;;;;;2.13;0.80;;;;;;;;;;4986113;28;20129;-84
2021/01/21 02:36:29;;;;;;;2.42;0.98;;;;;;;;;;4967783;28;20048;-83
2021/01/21 02:38:58;;;;;;;1.95;1.10;;;;;;;;;;4981345;28;20027;-83
2021/01/21 02:41:25;;;;;;;3.03;1.10;;;;;;;;;;4987800;28;20458;-83
2021/01/21 02:43:51;;;;;;;1.52;0.65;;;;;;;;;;4971214;28;20121;-83
2021/01/21 02:46:17;;;;;;;3.22;1.42;;;;;;;;;;4989241;28;20129;-85
2021/01/21 02:48:45;;;;;;;1.10;0.90;;;;;;;;;;4982437;28;20459;-84
2021/01/21 02:51:22;;;;;;;1.70;0.80;;;;;;;;;;4967679;28;20049;-83
2021/01/21 02:53:56;;;;;;;9.77;1.40;;;;;;;;;;4986327;28;20022;-84
2021/01/21 02:56:26;;;;;;;5.28;1.00;;;;;;;;;;4983606;28;20108;-86
2021/01/21 02:58:53;;;;;;;3.28;0.90;;;;;;;;;;4987877;28;20019;-86
2021/01/21 03:01:24;;;;;;;2.20;1.00;;;;;;;;;;4988061;28;20092;-85
2021/01/21 03:03:54;;;;;;;4.03;1.40;;;;;;;;;;4981146;28;20407;-80
2021/01/21 03:06:20;;;;;;;9.32;1.33;;;;;;;;;;4967421;28;20078;-84
2021/01/21 03:08:49;;;;;;;2.65;0.82;;;;;;;;;;4963180;28;20033;-85
2021/01/21 03:11:15;;;;;;;0.80;0.80;;;;;;;;;;4982785;28;20033;-82
2021/01/21 03:13:47;;;;;;;1.60;0.98;;;;;;;;;;4967346;28;20082;-81
2021/01/21 03:16:19;;;;;;;3.40;1.00;;;;;;;;;;4981042;28;20034;-83
2021/01/21 03:18:50;;;;;;;5.40;1.00;;;;;;;;;;4968654;28;20552;-83
2021/01/21 03:21:19;;;;;;;3.88;0.88;;;;;;;;;;4987211;28;20034;-84
2021/01/21 03:23:45;;;;;;;11.73;1.20;;;;;;;;;;4987449;28;20501;-84
2021/01/21 03:26:11;;;;;;;3.72;0.90;;;;;;;;;;4985146;28;20145;-83
2021/01/21 03:28:37;;;;;;;2.25;0.88;;;;;;;;;;4967316;28;20665;-83
2021/01/21 03:31:06;;;;;;;2.63;1.20;;;;;;;;;;4987726;28;20073;-84
2021/01/21 03:33:31;;;;;;;3.17;0.77;;;;;;;;;;4986891;28;20023;-82
2021/01/21 03:35:58;;;;;;;2.40;0.90;;;;;;;;;;4970020;28;20034;-84
2021/01/21 03:38:23;;;;;;;2.17;1.10;;;;;;;;;;4984804;28;20376;-84
2021/01/21 03:40:55;;;;;;;3.58;1.15;;;;;;;;;;4965547;28;20049;-84
2021/01/21 03:43:23;;;;;;;4.30;1.45;;;;;;;;;;4970429;28;20462;-85
2021/01/21 03:45:51;;;;;;;2.75;1.50;;;;;;;;;;4967351;28;20027;-84
2021/01/21 03:48:17;;;;;;;1.98;0.90;;;;;;;;;;4983767;28;20380;-83
2021/01/21 03:50:44;;;;;;;4.00;0.93;;;;;;;;;;4967119;28;20125;-83
2021/01/21 03:53:13;;;;;;;1.33;0.80;;;;;;;;;;4986810;28;20614;-82
2021/01/21 03:55:38;;;;;;;3.42;1.30;;;;;;;;;;4953534;28;20065;-84
2021/01/21 03:58:07;;;;;;;4.97;1.25;;;;;;;;;;4973674;28;20058;-84
2021/01/21 04:00:35;;;;;;;1.20;0.63;;;;;;;;;;4967310;28;20132;-84
2021/01/21 04:03:01;;;;;;;4.18;1.40;;;;;;;;;;4963870;28;20042;-82
2021/01/21 04:05:27;;;;;;;2.35;1.08;;;;;;;;;;4985582;28;20026;-84
2021/01/21 04:07:53;;;;;;;2.33;1.02;;;;;;;;;;4984255;28;20101;-82
2021/01/21 04:10:18;;;;;;;1.45;0.73;;;;;;;;;;4987461;28;20335;-82
2021/01/21 04:12:44;;;;;;;0.98;0.88;;;;;;;;;;4988003;28;20023;-84
2021/01/21 04:15:14;;;;;;;3.33;0.93;;;;;;;;;;4983196;28;20037;-81
2021/01/21 04:17:39;;;;;;;9.75;1.52;;;;;;;;;;4963961;28;20096;-83
2021/01/21 04:20:06;;;;;;;2.22;1.08;;;;;;;;;;4986847;28;20030;-83
2021/01/21 04:22:31;;;;;;;5.15;1.05;;;;;;;;;;4982247;28;20553;-84
2021/01/21 04:24:59;;;;;;;1.95;0.77;;;;;;;;;;4984983;28;20053;-85
2021/01/21 04:27:27;;;;;;;4.28;1.10;;;;;;;;;;4965436;28;20034;-83
2021/01/21 04:29:53;;;;;;;3.05;1.42;;;;;;;;;;4968667;28;20064;-85
2021/01/21 04:32:18;;;;;;;5.15;1.02;;;;;;;;;;4987222;28;20363;-85
2021/01/21 04:34:44;;;;;;;10.43;1.63;;;;;;;;;;4987405;28;20033;-84
2021/01/21 04:37:12;;;;;;;2.78;0.90;;;;;;;;;;4985815;28;20044;-83
2021/01/21 04:39:38;;;;;;;2.15;1.13;;;;;;;;;;4985240;28;20331;-82
2021/01/21 04:42:03;;;;;;;6.75;1.30;;;;;;;;;;4984510;28;20049;-85
2021/01/21 04:44:31;;;;;;;2.83;1.13;;;;;;;;;;4967338;28;20065;-84
2021/01/21 04:46:58;;;;;;;4.07;1.48;;;;;;;;;;4963649;28;20041;-83
2021/01/21 04:49:27;;;;;;;2.28;1.10;;;;;;;;;;4985081;28;20049;-84
2021/01/21 04:51:57;;;;;;;2.08;1.20;;;;;;;;;;4970466;28;20118;-85
2021/01/21 04:54:27;;;;;;;2.92;1.30;;;;;;;;;;4971059;28;20045;-85
2021/01/21 04:56:55;;;;;;;1.77;0.90;;;;;;;;;;4986342;28;20029;-83
2021/01/21 04:59:20;;;;;;;5.03;1.77;;;;;;;;;;4991516;28;20026;-81
2021/01/21 05:01:54;;;;;;;8.80;1.77;;;;;;;;;;4988569;28;20041;-84
2021/01/21 05:04:23;;;;;;;9.52;1.27;;;;;;;;;;4989439;28;20172;-84
2021/01/21 05:06:50;;;;;;;4.75;1.80;;;;;;;;;;4989239;28;20030;-87
2021/01/21 05:09:19;;;;;;;0.90;0.65;;;;;;;;;;4988307;28;20073;-86
2021/01/21 05:11:45;;;;;;;1.23;0.88;;;;;;;;;;4990223;28;20434;-85
2021/01/21 05:14:11;;;;;;;1.30;0.40;;;;;;;;;;4990021;28;20029;-82
2021/01/21 05:16:39;;;;;;;5.25;1.20;;;;;;;;;;4970070;28;20386;-82
2021/01/21 05:19:08;;;;;;;0.85;0.75;;;;;;;;;;4987036;28;20027;-85
2021/01/21 05:21:33;;;;;;;3.25;0.40;;;;;;;;;;4987862;28;20026;-84
2021/01/21 05:24:00;;;;;;;1.10;0.30;;;;;;;;;;4986527;28;20406;-81
2021/01/21 05:26:27;;;;;;;4.55;0.47;;;;;;;;;;4984524;28;20120;-84
2021/01/21 05:28:58;;;;;;;7.22;0.77;;;;;;;;;;4960734;28;20463;-84
2021/01/21 05:31:26;;;;;;;1.98;0.98;;;;;;;;;;4967221;28;20080;-84
2021/01/21 05:33:54;;;;;;;12.10;1.08;;;;;;;;;;4987672;28;20038;-83
2021/01/21 05:36:19;;;;;;;6.68;0.85;;;;;;;;;;4965335;28;20022;-85
2021/01/21 05:38:55;;;;;;;7.10;1.50;;;;;;;;;;4989971;28;20089;-83
2021/01/21 05:41:31;;;;;;;4.22;1.42;;;;;;;;;;4987291;28;20030;-85
2021/01/21 05:43:56;;;;;;;3.75;1.50;;;;;;;;;;4982266;28;20034;-84
2021/01/21 05:46:24;;;;;;;5.88;1.35;;;;;;;;;;4967147;28;20041;-82
2021/01/21 05:48:52;;;;;;;6.20;2.17;;;;;;;;;;4968477;28;20040;-83
2021/01/21 05:51:18;;;;;;;5.10;1.38;;;;;;;;;;4972119;28;20038;-81
2021/01/21 05:53:43;;;;;;;10.88;1.70;;;;;;;;;;4971988;28;20049;-83
2021/01/21 05:56:10;;;;;;;4.50;1.52;;;;;;;;;;4986174;28;20114;-81
2021/01/21 05:58:36;;;;;;;6.22;1.73;;;;;;;;;;4986460;28;20504;-84
2021/01/21 06:01:06;;;;;;;9.05;2.20;;;;;;;;;;4982906;28;20034;-84
2021/01/21 06:03:38;;;;;;;7.90;1.80;;;;;;;;;;4987346;28;20169;-83
2021/01/21 06:06:07;;;;;;;5.60;0.98;;;;;;;;;;4984963;28;20036;-82
2021/01/21 06:08:39;;;;;;;6.32;1.27;;;;;;;;;;4985226;28;20038;-84
2021/01/21 06:11:10;;;;;;;14.48;1.88;;;;;;;;;;4987302;28;20034;-82
2021/01/21 06:13:46;;;;;;;11.50;1.80;;;;;;;;;;4986341;28;20030;-83
2021/01/21 06:16:15;;;;;;;6.78;1.42;;;;;;;;;;4988276;28;20095;-85
2021/01/21 06:18:40;;;;;;;3.20;0.95;;;;;;;;;;4980997;28;20015;-87
2021/01/21 06:21:07;;;;;;;8.50;1.30;;;;;;;;;;4969957;28;20441;-83
2021/01/21 06:23:35;;;;;;;5.53;0.73;;;;;;;;;;4988978;28;20741;-85
2021/01/21 06:26:00;;;;;;;4.78;0.50;;;;;;;;;;4969574;28;20093;-84
2021/01/21 06:28:29;;;;;;;4.50;0.80;;;;;;;;;;4984257;28;20038;-83
2021/01/21 06:30:58;;;;;;;4.97;0.63;;;;;;;;;;4987308;28;20034;-87
2021/01/21 06:33:32;;;;;;;7.70;0.73;;;;;;;;;;4986522;28;20045;-85
2021/01/21 06:36:08;;;;;;;3.20;0.30;;;;;;;;;;4982111;28;20110;-82
2021/01/21 06:38:42;;;;;;;3.35;0.70;;;;;;;;;;4966015;28;20097;-85
2021/01/21 06:41:10;;;;;;;;;;;;;;;;;;4968387;28;20034;-83
2021/01/21 06:43:36;;;;;;;2.17;0.43;;;;;;;;;;4987803;28;19914;-86
2021/01/21 06:46:02;;;;;;;6.57;0.50;;;;;;;;;;4985865;28;20481;-85
2021/01/21 06:48:28;;;;;;;8.57;0.93;;;;;;;;;;4988231;28;20030;-81
2021/01/21 06:50:54;;;;;;;4.53;0.90;;;;;;;;;;4986744;28;20032;-83
2021/01/21 06:53:20;;;;;;;6.32;1.08;;;;;;;;;;4972281;28;20022;-84
2021/01/21 06:55:51;;;;;;;1.38;0.77;;;;;;;;;;4984667;28;20026;-82
2021/01/21 06:58:38;;;;;;;3.25;0.93;;;;;;;;;;4981546;28;20034;-83
2021/01/21 07:01:06;;;;;;;4.15;0.68;;;;;;;;;;4986501;28;20029;-84
2021/01/21 07:03:34;;;;;;;4.80;1.63;;;;;;;;;;4987362;28;20159;-83
2021/01/21 07:06:02;;;;;;;5.10;1.27;;;;;;;;;;4980380;28;20034;-83
2021/01/21 07:08:48;;;;;;;3.85;0.60;;;;;;;;;;4984603;28;20027;-80
2021/01/21 07:11:16;;;;;;;3.08;0.93;;;;;;;;;;4997479;28;20102;-82
2021/01/21 07:13:42;;;;;;;9.45;0.60;;;;;;;;;;4982253;28;20084;-85
2021/01/21 07:16:12;;;;;;;6.40;1.00;;;;;;;;;;4970090;28;20034;-83
2021/01/21 07:18:37;;;;;;;5.75;1.35;;;;;;;;;;4971290;28;20675;-85
2021/01/21 07:21:06;;;;;;;9.02;1.50;;;;;;;;;;4972013;28;20049;-82
2021/01/21 07:23:48;;;;;;;9.38;0.88;;;;;;;;;;4983368;28;20072;-85
2021/01/21 07:26:33;;;;;;;7.43;1.40;;;;;;;;;;4964846;28;20050;-82
2021/01/21 07:28:58;;;;;;;6.85;1.13;;;;;;;;;;4949895;28;20125;-84
2021/01/21 07:31:24;;;;;;;6.90;0.98;;;;;;;;;;4950930;28;20653;-82
2021/01/21 07:34:11;;;;;;;4.43;0.77;;;;;;;;;;4962530;28;20034;-83
2021/01/21 07:36:39;;;;;;;9.75;1.90;;;;;;;;;;4946462;28;20046;-82
2021/01/21 07:39:04;;;;;;;10.75;1.55;;;;;;;;;;4934312;28;20608;-82
2021/01/21 07:41:42;;;;;;;13.05;1.67;;;;;;;;;;4952850;28;20038;-82
2021/01/21 07:44:07;;;;;;;11.95;1.25;;;;;;;;;;4966647;28;20030;-83
2021/01/21 07:46:35;;;;;;;3.35;0.98;;;;;;;;;;4966409;28;20045;-84
2021/01/21 07:49:23;;;;;;;8.77;1.23;;;;;;;;;;4967036;28;20058;-83
2021/01/21 07:52:04;;;;;;;6.78;1.55;;;;;;;;;;4966799;28;20372;-81
2021/01/21 07:54:48;;;;;;;4.70;1.65;;;;;;;;;;4963349;28;20574;-83
2021/01/21 07:57:41;;;;;;;7.35;1.75;;;;;;;;;;4965337;28;20038;-81
2021/01/21 08:07:33;;;;;;;5.47;1.58;;;;;;;;;;4883204;29;20041;-80
2021/01/21 08:13:25;;;;;;;18.67;2.80;;;;;;;;;;4895839;29;20046;-83
2021/01/21 08:16:16;;;;;;;;;;;;;;;;;;;;;
2021/01/21 08:32:59;;;;;;;8.90;2.63;;;;;;;;;;4898851;29;20047;-83
2021/01/21 08:35:51;;;;;;;11.45;2.97;;;;;;;;;;4914269;29;20818;-82
2021/01/21 08:39:10;;;;;;;;;;;;;;;;;;;;;
2021/01/21 08:42:36;;;;;;;;;;;;;;;;;;;;;
2021/01/21 08:49:47;;;;;;;6.45;1.67;;;;;;;;;;4791218;29;20046;-82
2021/01/21 08:53:13;;;;;;;7.38;2.55;;;;;;;;;;4785184;29;20059;-84
2021/01/21 08:55:58;;;;;;;7.25;1.58;;;;;;;;;;4807656;29;20110;-84
2021/01/21 08:58:33;;;;;;;9.70;2.88;;;;;;;;;;4812524;29;20051;-81
2021/01/21 09:08:27;;;;;;;7.07;1.55;;;;;;;;;;4844784;29;20060;-82
2021/01/21 09:11:39;;;;;;;;;;;;;;;;;;;;;
2021/01/21 09:14:34;;;;;;;5.03;1.48;;;;;;;;;;4813474;29;20205;-83
2021/01/21 09:31:16;;;;;;;8.38;1.40;;;;;;;;;;4726941;30;20064;-83
2021/01/21 09:37:34;;;;;;;6.15;1.55;;;;;;;;;;4702992;30;20272;-83
2021/01/21 09:40:00;;;;;;;7.00;1.25;;;;;;;;;;4721580;30;20492;-84
2021/01/21 09:42:29;;;;;;;4.90;1.05;;;;;;;;;;4791189;29;20566;-83
2021/01/21 09:44:55;;;;;;;6.15;0.82;;;;;;;;;;4974032;28;20062;-83
2021/01/21 09:47:23;;;;;;;14.52;1.38;;;;;;;;;;4985848;28;20110;-81
2021/01/21 09:49:50;;;;;;;7.50;1.02;;;;;;;;;;4989378;28;20139;-81
2021/01/21 09:52:15;;;;;;;5.40;2.15;;;;;;;;;;4987564;28;20069;-84
2021/01/21 09:54:41;;;;;;;3.33;1.40;;;;;;;;;;4974284;28;20057;-85
2021/01/21 09:57:07;;;;;;;4.50;1.35;;;;;;;;;;4971997;28;20533;-83
2021/01/21 09:59:33;;;;;;;6.28;1.20;;;;;;;;;;4989591;28;20033;-82
2021/01/21 10:02:02;;;;;;;5.13;1.02;;;;;;;;;;4963800;28;20022;-82
2021/01/21 10:04:27;;;;;;;6.25;1.77;;;;;;;;;;4968076;28;20046;-81
2021/01/21 10:06:53;;;;;;;7.80;1.08;;;;;;;;;;4988407;28;20030;-84
2021/01/21 10:09:21;;;;;;;7.80;1.20;;;;;;;;;;4969241;28;20038;-81
2021/01/21 10:11:47;;;;;;;3.65;0.70;;;;;;;;;;4980774;28;20080;-83
2021/01/21 10:14:12;;;;;;;4.38;1.45;;;;;;;;;;4979823;28;20431;-83
2021/01/21 10:16:38;;;;;;;3.67;0.90;;;;;;;;;;4986927;28;20065;-83
2021/01/21 10:19:04;;;;;;;7.88;1.23;;;;;;;;;;4985057;28;20045;-83
2021/01/21 10:21:38;;;;;;;8.02;1.30;;;;;;;;;;4986892;28;20034;-84
2021/01/21 10:24:04;;;;;;;7.10;0.80;;;;;;;;;;4987235;28;20033;-83
2021/01/21 10:26:30;;;;;;;9.18;1.25;;;;;;;;;;4986720;28;20037;-83
2021/01/21 10:28:55;;;;;;;9.73;1.40;;;;;;;;;;4986505;28;20077;-82
2021/01/21 10:31:21;;;;;;;4.22;1.05;;;;;;;;;;4970673;28;20079;-85
2021/01/21 10:33:46;;;;;;;6.18;2.05;;;;;;;;;;4986046;28;20109;-81
2021/01/21 10:36:12;;;;;;;4.07;1.15;;;;;;;;;;4984949;28;20116;-81
2021/01/21 10:38:44;;;;;;;2.58;0.88;;;;;;;;;;4987823;28;20475;-84
2021/01/21 10:41:10;;;;;;;9.80;1.52;;;;;;;;;;4986223;28;20101;-81
2021/01/21 10:43:37;;;;;;;11.82;1.65;;;;;;;;;;4989556;28;20609;-81
2021/01/21 10:46:35;;;;;;;9.70;1.85;;;;;;;;;;4967573;28;20117;-83
2021/01/21 10:49:10;;;;;;;4.23;1.37;;;;;;;;;;4942688;28;20049;-84
2021/01/21 10:51:36;;;;;;;20.23;1.95;;;;;;;;;;4965767;28;20347;-86
2021/01/21 10:54:10;;;;;;;5.20;1.80;;;;;;;;;;4984657;28;20017;-84
2021/01/21 10:56:38;;;;;;;12.23;1.63;;;;;;;;;;4971528;28;20117;-85
2021/01/21 10:59:05;;;;;;;8.95;1.80;;;;;;;;;;4982031;28;20796;-84
2021/01/21 11:01:34;;;;;;;6.50;1.67;;;;;;;;;;4987675;28;20190;-83
2021/01/21 11:04:16;;;;;;;;;;;;;;;;;;;;;
2021/01/21 11:06:59;;;;;;;8.00;1.85;;;;;;;;;;4985584;28;20080;-82
2021/01/21 11:09:35;;;;;;;9.65;1.83;;;;;;;;;;4989848;28;20049;-84
2021/01/21 11:12:01;;;;;;;8.30;1.38;;;;;;;;;;4965573;28;20069;-82
2021/01/21 11:14:27;;;;;;;11.50;1.60;;;;;;;;;;4969140;28;20041;-82
2021/01/21 11:16:55;;;;;;;10.00;1.55;;;;;;;;;;4969176;28;20343;-83
2021/01/21 11:19:23;;;;;;;7.13;1.30;;;;;;;;;;4965648;28;20017;-84
2021/01/21 11:21:58;;;;;;;14.70;1.77;;;;;;;;;;4986637;28;20366;-82
2021/01/21 11:24:26;;;;;;;12.93;2.10;;;;;;;;;;4966069;28;20292;-83
2021/01/21 11:26:59;;;;;;;7.80;1.42;;;;;;;;;;4985806;28;20046;-83
2021/01/21 11:29:25;;;;;;;4.63;1.30;;;;;;;;;;4956714;28;20030;-84
2021/01/21 11:31:52;;;;;;;9.90;1.23;;;;;;;;;;4984106;28;20046;-83
2021/01/21 11:34:20;;;;;;;9.50;1.50;;;;;;;;;;4986690;28;20045;-83
2021/01/21 11:36:50;;;;;;;13.68;1.42;;;;;;;;;;4986679;28;20035;-82
2021/01/21 11:39:18;;;;;;;7.32;1.42;;;;;;;;;;4986393;28;20155;-83
2021/01/21 11:41:44;;;;;;;9.13;1.15;;;;;;;;;;4980047;28;20084;-83
2021/01/21 11:44:09;;;;;;;5.90;1.15;;;;;;;;;;5000789;28;20622;-81
2021/01/21 11:46:41;;;;;;;5.00;1.13;;;;;;;;;;4970231;28;20025;-83
2021/01/21 11:49:07;;;;;;;6.10;1.08;;;;;;;;;;4985086;28;20037;-82
2021/01/21 11:51:32;;;;;;;10.13;0.98;;;;;;;;;;4984586;28;20026;-82
2021/01/21 11:53:58;;;;;;;9.73;1.27;;;;;;;;;;4984853;28;20062;-84
2021/01/21 11:56:26;;;;;;;6.97;1.88;;;;;;;;;;4982460;28;20088;-82
2021/01/21 11:58:52;;;;;;;5.65;1.45;;;;;;;;;;4968724;28;20030;-86
2021/01/21 12:01:20;;;;;;;7.50;1.40;;;;;;;;;;4985016;28;20030;-82
2021/01/21 12:03:46;;;;;;;7.25;1.20;;;;;;;;;;4987176;28;20037;-82
2021/01/21 12:06:29;;;;;;;5.15;1.42;;;;;;;;;;4967883;28;20030;-83
2021/01/21 12:08:54;;;;;;;12.15;1.15;;;;;;;;;;4985564;28;20042;-83
2021/01/21 12:11:20;;;;;;;9.20;1.48;;;;;;;;;;4979844;28;20034;-84
2021/01/21 12:13:49;;;;;;;7.35;1.50;;;;;;;;;;4982726;28;20230;-84
2021/01/21 12:16:14;;;;;;;16.60;1.42;;;;;;;;;;4981735;28;20081;-84
2021/01/21 12:18:39;;;;;;;4.43;2.25;;;;;;;;;;4959425;28;20030;-84
2021/01/21 12:21:05;;;;;;;11.18;1.35;;;;;;;;;;4961194;28;20030;-84
2021/01/21 12:23:31;;;;;;;10.35;1.73;;;;;;;;;;4965144;28;20129;-82
2021/01/21 12:25:57;;;;;;;8.60;1.05;;;;;;;;;;4963651;28;20053;-86
2021/01/21 12:28:23;;;;;;;4.65;1.33;;;;;;;;;;4951549;28;20050;-85
2021/01/21 12:30:52;;;;;;;6.82;2.08;;;;;;;;;;4974508;28;20073;-85
2021/01/21 12:33:17;;;;;;;6.68;1.42;;;;;;;;;;4959012;28;20042;-84
2021/01/21 12:35:43;;;;;;;10.48;1.30;;;;;;;;;;4985244;28;20018;-85
2021/01/21 12:38:11;;;;;;;10.93;1.33;;;;;;;;;;4985486;28;20497;-84
2021/01/21 12:40:36;;;;;;;6.28;0.88;;;;;;;;;;4951261;28;20030;-83
2021/01/21 12:43:02;;;;;;;13.00;1.38;;;;;;;;;;4984860;28;20025;-83
2021/01/21 12:45:27;;;;;;;8.27;1.45;;;;;;;;;;4978405;28;20014;-84
2021/01/21 12:47:53;;;;;;;15.23;1.70;;;;;;;;;;4987954;28;20468;-82
2021/01/21 12:50:18;;;;;;;10.00;2.03;;;;;;;;;;4968567;28;20048;-84
2021/01/21 12:52:44;;;;;;;6.93;1.30;;;;;;;;;;4966974;28;20474;-82
2021/01/21 12:55:11;;;;;;;6.50;1.83;;;;;;;;;;4966784;28;20030;-84
2021/01/21 12:57:40;;;;;;;7.50;1.55;;;;;;;;;;4983771;28;20073;-85
2021/01/21 13:00:07;;;;;;;6.10;1.23;;;;;;;;;;4985380;28;20027;-86
2021/01/21 13:02:32;;;;;;;4.45;2.25;;;;;;;;;;4965582;28;20026;-85
2021/01/21 13:05:01;;;;;;;8.70;1.40;;;;;;;;;;4980238;28;20034;-83
2021/01/21 13:07:27;;;;;;;7.32;1.55;;;;;;;;;;4986245;28;20034;-83
2021/01/21 13:09:53;;;;;;;9.05;1.60;;;;;;;;;;4987516;28;20061;-86
2021/01/21 13:12:18;;;;;;;9.43;1.23;;;;;;;;;;4967168;28;20070;-84
2021/01/21 13:14:47;;;;;;;5.13;1.27;;;;;;;;;;4988312;28;20038;-82
2021/01/21 13:17:12;;;;;;;5.80;1.10;;;;;;;;;;4967660;28;20053;-83
2021/01/21 13:19:38;;;;;;;8.85;1.30;;;;;;;;;;4966656;28;21198;-80
2021/01/21 13:22:05;;;;;;;5.30;1.15;;;;;;;;;;4984665;28;20034;-82
2021/01/21 13:24:31;;;;;;;10.35;1.95;;;;;;;;;;4986648;28;20028;-82
2021/01/21 13:26:57;;;;;;;8.18;1.17;;;;;;;;;;4985792;28;20046;-86
2021/01/21 13:29:22;;;;;;;4.80;1.27;;;;;;;;;;4987631;28;20411;-84
2021/01/21 13:31:51;;;;;;;6.90;1.23;;;;;;;;;;4987546;28;20042;-85
2021/01/21 13:34:24;;;;;;;10.65;1.30;;;;;;;;;;4971333;28;20064;-83
2021/01/21 13:36:53;;;;;;;4.05;0.90;;;;;;;;;;4981925;28;20052;-82
2021/01/21 13:39:18;;;;;;;8.85;2.13;;;;;;;;;;4985774;28;20130;-84
2021/01/21 13:41:44;;;;;;;8.07;1.63;;;;;;;;;;4988382;28;20047;-84
2021/01/21 13:44:09;;;;;;;5.43;0.90;;;;;;;;;;4970951;28;20044;-85
2021/01/21 13:46:35;;;;;;;6.25;1.45;;;;;;;;;;4984792;28;20022;-84
2021/01/21 13:49:03;;;;;;;7.15;1.85;;;;;;;;;;4988473;28;20343;-83
2021/01/21 13:51:30;;;;;;;3.45;1.10;;;;;;;;;;4987607;28;20030;-83
2021/01/21 13:53:56;;;;;;;5.70;1.05;;;;;;;;;;4981930;28;20241;-82
2021/01/21 13:56:22;;;;;;;6.03;1.15;;;;;;;;;;4971002;28;20235;-83
2021/01/21 13:58:47;;;;;;;3.15;1.00;;;;;;;;;;4987310;28;20108;-86
2021/01/21 14:01:13;;;;;;;5.05;0.98;;;;;;;;;;4968360;28;20034;-83
2021/01/21 14:03:38;;;;;;;6.68;1.13;;;;;;;;;;4982252;28;20057;-84
2021/01/21 14:06:04;;;;;;;4.65;0.90;;;;;;;;;;4967651;28;20407;-85
2021/01/21 14:08:30;;;;;;;10.45;1.60;;;;;;;;;;4965992;28;20113;-86
2021/01/21 14:10:56;;;;;;;7.47;0.88;;;;;;;;;;4989073;28;20569;-84
2021/01/21 14:13:29;;;;;;;8.55;1.05;;;;;;;;;;4987799;28;20571;-86
2021/01/21 14:15:55;;;;;;;7.38;1.05;;;;;;;;;;4966310;28;20034;-85
2021/01/21 14:18:23;;;;;;;8.05;1.48;;;;;;;;;;4986255;28;20614;-84
2021/01/21 14:20:49;;;;;;;5.30;1.13;;;;;;;;;;4987796;28;20059;-84
2021/01/21 14:23:14;;;;;;;5.60;1.40;;;;;;;;;;4987000;28;20539;-84
2021/01/21 14:25:40;;;;;;;7.07;0.90;;;;;;;;;;4986921;28;20030;-83
2021/01/21 14:28:09;;;;;;;2.88;0.77;;;;;;;;;;4977361;28;20068;-85
2021/01/21 14:30:35;;;;;;;6.00;1.15;;;;;;;;;;4987405;28;20077;-85
2021/01/21 14:33:13;;;;;;;4.03;1.17;;;;;;;;;;4977017;28;20030;-84
2021/01/21 14:35:41;;;;;;;9.07;1.30;;;;;;;;;;4983777;28;20448;-84
2021/01/21 14:38:09;;;;;;;9.40;1.40;;;;;;;;;;4978641;28;20109;-82
2021/01/21 14:40:37;;;;;;;3.45;0.85;;;;;;;;;;4980413;28;20361;-86
2021/01/21 14:43:06;;;;;;;9.43;0.85;;;;;;;;;;4980211;28;20014;-83
2021/01/21 14:45:34;;;;;;;1.15;0.73;;;;;;;;;;4985458;28;20029;-83
2021/01/21 14:48:02;;;;;;;8.55;1.42;;;;;;;;;;4988198;28;20014;-85
2021/01/21 14:50:33;;;;;;;5.57;1.48;;;;;;;;;;4969928;28;20042;-86
2021/01/21 14:53:05;;;;;;;5.63;1.63;;;;;;;;;;4988571;28;20040;-84
2021/01/21 14:55:41;;;;;;;3.97;1.23;;;;;;;;;;4967595;28;20026;-86
2021/01/21 14:58:23;;;;;;;7.13;1.27;;;;;;;;;;4987560;28;20069;-87
2021/01/21 15:01:14;;;;;;;9.43;1.30;;;;;;;;;;4987275;28;20022;-87
2021/01/21 15:03:40;;;;;;;2.42;0.82;;;;;;;;;;4950556;28;20157;-87
2021/01/21 15:06:12;;;;;;;5.57;1.55;;;;;;;;;;4966380;28;20106;-86
2021/01/21 15:08:41;;;;;;;4.18;1.00;;;;;;;;;;4988950;28;20161;-89
2021/01/21 15:11:25;;;;;;;8.75;1.25;;;;;;;;;;4970750;28;20105;-86
2021/01/21 15:14:13;;;;;;;20.13;1.80;;;;;;;;;;4972151;28;20021;-89
2021/01/21 15:16:47;;;;;;;7.80;1.65;;;;;;;;;;4982568;28;21672;-86
2021/01/21 15:20:49;;;;;;;7.07;1.08;;;;;;;;;;4981868;28;20335;-84
2021/01/21 15:23:04;;;;;;;2.67;1.00;;;;;;;;;;4897122;28;20097;-85
2021/01/21 15:25:30;;;;;;;6.85;1.85;;;;;;;;;;4985842;28;20447;-86
2021/01/21 15:28:18;;;;;;;4.88;1.35;;;;;;;;;;4985936;28;20037;-81
2021/01/21 15:31:01;;;;;;;8.82;1.77;;;;;;;;;;4984671;28;20034;-82
2021/01/21 15:33:35;;;;;;;5.40;0.85;;;;;;;;;;4986596;28;20545;-82
2021/01/21 15:43:15;;;;;;;8.57;1.50;;;;;;;;;;4881725;29;20465;-83
2021/01/21 15:46:01;;;;;;;4.70;1.83;;;;;;;;;;4935203;28;20049;-84
2021/01/21 15:52:14;;;;;;;10.13;1.77;;;;;;;;;;4976547;28;20156;-83
2021/01/21 15:54:52;;;;;;;3.58;1.45;;;;;;;;;;4987113;28;20015;-83
2021/01/21 15:57:56;;;;;;;4.72;0.82;;;;;;;;;;4903395;29;20131;-84
2021/01/21 16:00:21;;;;;;;8.18;1.60;;;;;;;;;;4986081;28;20212;-83
2021/01/21 16:06:19;;;;;;;3.28;0.88;;;;;;;;;;4986582;28;20049;-84
2021/01/21 16:09:08;;;;;;;6.93;1.52;;;;;;;;;;4974877;28;20034;-84
2021/01/21 16:11:35;;;;;;;10.40;1.88;;;;;;;;;;4982554;28;20453;-83